sensor_id;sensor_type;location;lat;lon;timestamp;P1;durP1;ratioP1;P2;durP2;ratioP2
8938;SDS011;4504;48.810;9.172;2023-02-28T00:00:50;112.25;;;5.65;;
8938;SDS011;4504;48.810;9.172;2023-02-28T00:03:17;109.72;;;4.80;;
8938;SDS011;4504;48.810;9.172;2023-02-28T00:05:44;110.50;;;4.60;;
8938;SDS011;4504;48.810;9.172;2023-02-28T00:08:11;110.90;;;4.97;;
8938;SDS011;4504;48.810;9.172;2023-02-28T00:10:38;109.65;;;4.70;;
8938;SDS011;4504;48.810;9.172;2023-02-28T00:13:05;110.28;;;4.95;;
8938;SDS011;4504;48.810;9.172;2023-02-28T00:15:34;111.03;;;5.30;;
8938;SDS011;4504;48.810;9.172;2023-02-28T00:18:01;111.18;;;5.00;;
8938;SDS011;4504;48.810;9.172;2023-02-28T00:20:29;110.22;;;4.50;;
8938;SDS011;4504;48.810;9.172;2023-02-28T00:22:56;110.10;;;4.60;;
8938;SDS011;4504;48.810;9.172;2023-02-28T00:25:24;110.93;;;4.70;;
8938;SDS011;4504;48.810;9.172;2023-02-28T00:27:51;110.63;;;4.70;;
8938;SDS011;4504;48.810;9.172;2023-02-28T00:30:19;110.65;;;4.80;;
8938;SDS011;4504;48.810;9.172;2023-02-28T00:32:49;110.70;;;4.50;;
8938;SDS011;4504;48.810;9.172;2023-02-28T00:35:16;111.07;;;4.68;;
8938;SDS011;4504;48.810;9.172;2023-02-28T00:37:44;111.47;;;5.20;;
8938;SDS011;4504;48.810;9.172;2023-02-28T00:40:11;110.20;;;4.60;;
8938;SDS011;4504;48.810;9.172;2023-02-28T00:42:38;111.07;;;5.10;;
8938;SDS011;4504;48.810;9.172;2023-02-28T00:45:06;109.35;;;4.50;;
8938;SDS011;4504;48.810;9.172;2023-02-28T00:47:36;110.68;;;4.43;;
8938;SDS011;4504;48.810;9.172;2023-02-28T00:50:05;110.60;;;4.97;;
8938;SDS011;4504;48.810;9.172;2023-02-28T00:52:35;110.88;;;5.22;;
8938;SDS011;4504;48.810;9.172;2023-02-28T00:55:02;111.85;;;5.35;;
8938;SDS011;4504;48.810;9.172;2023-02-28T00:57:30;110.53;;;4.95;;
8938;SDS011;4504;48.810;9.172;2023-02-28T00:59:57;109.95;;;4.90;;
8938;SDS011;4504;48.810;9.172;2023-02-28T01:02:24;108.65;;;4.70;;
8938;SDS011;4504;48.810;9.172;2023-02-28T01:04:51;110.63;;;5.07;;
8938;SDS011;4504;48.810;9.172;2023-02-28T01:07:20;111.18;;;5.13;;
8938;SDS011;4504;48.810;9.172;2023-02-28T01:09:47;110.32;;;5.10;;
8938;SDS011;4504;48.810;9.172;2023-02-28T01:12:14;110.72;;;5.30;;
8938;SDS011;4504;48.810;9.172;2023-02-28T01:14:41;108.95;;;5.10;;
8938;SDS011;4504;48.810;9.172;2023-02-28T01:17:08;110.28;;;4.75;;
8938;SDS011;4504;48.810;9.172;2023-02-28T01:19:35;109.70;;;5.10;;
8938;SDS011;4504;48.810;9.172;2023-02-28T01:22:03;108.97;;;4.85;;
8938;SDS011;4504;48.810;9.172;2023-02-28T01:24:32;111.88;;;5.47;;
8938;SDS011;4504;48.810;9.172;2023-02-28T01:26:59;110.03;;;4.80;;
8938;SDS011;4504;48.810;9.172;2023-02-28T01:29:26;112.32;;;5.63;;
8938;SDS011;4504;48.810;9.172;2023-02-28T01:31:53;110.97;;;5.18;;
8938;SDS011;4504;48.810;9.172;2023-02-28T01:34:20;110.32;;;5.90;;
8938;SDS011;4504;48.810;9.172;2023-02-28T01:36:47;111.43;;;5.13;;
8938;SDS011;4504;48.810;9.172;2023-02-28T01:39:14;111.50;;;5.25;;
8938;SDS011;4504;48.810;9.172;2023-02-28T01:41:42;109.43;;;5.03;;
8938;SDS011;4504;48.810;9.172;2023-02-28T01:47:09;109.93;;;5.18;;
8938;SDS011;4504;48.810;9.172;2023-02-28T01:49:36;110.72;;;5.30;;
8938;SDS011;4504;48.810;9.172;2023-02-28T01:52:04;110.57;;;4.88;;
8938;SDS011;4504;48.810;9.172;2023-02-28T01:54:31;110.78;;;4.93;;
8938;SDS011;4504;48.810;9.172;2023-02-28T01:57:03;110.43;;;5.00;;
8938;SDS011;4504;48.810;9.172;2023-02-28T01:59:35;114.43;;;4.90;;
8938;SDS011;4504;48.810;9.172;2023-02-28T02:02:06;110.32;;;5.15;;
8938;SDS011;4504;48.810;9.172;2023-02-28T02:04:34;111.20;;;4.85;;
8938;SDS011;4504;48.810;9.172;2023-02-28T02:07:05;109.93;;;5.10;;
8938;SDS011;4504;48.810;9.172;2023-02-28T02:09:32;110.13;;;4.90;;
8938;SDS011;4504;48.810;9.172;2023-02-28T02:11:59;111.15;;;5.63;;
8938;SDS011;4504;48.810;9.172;2023-02-28T02:14:43;110.57;;;4.90;;
8938;SDS011;4504;48.810;9.172;2023-02-28T02:17:25;110.30;;;4.97;;
8938;SDS011;4504;48.810;9.172;2023-02-28T02:20:12;112.10;;;5.13;;
8938;SDS011;4504;48.810;9.172;2023-02-28T02:25:58;110.20;;;5.00;;
8938;SDS011;4504;48.810;9.172;2023-02-28T02:28:50;109.53;;;5.10;;
8938;SDS011;4504;48.810;9.172;2023-02-28T02:34:36;120.65;;;5.55;;
8938;SDS011;4504;48.810;9.172;2023-02-28T02:37:17;111.53;;;5.35;;
8938;SDS011;4504;48.810;9.172;2023-02-28T02:40:00;110.53;;;4.78;;
8938;SDS011;4504;48.810;9.172;2023-02-28T02:42:36;110.07;;;4.45;;
8938;SDS011;4504;48.810;9.172;2023-02-28T02:45:09;108.90;;;5.00;;
8938;SDS011;4504;48.810;9.172;2023-02-28T02:47:41;111.78;;;5.40;;
8938;SDS011;4504;48.810;9.172;2023-02-28T02:50:12;109.90;;;4.85;;
8938;SDS011;4504;48.810;9.172;2023-02-28T02:52:44;109.57;;;4.95;;
8938;SDS011;4504;48.810;9.172;2023-02-28T02:55:15;110.07;;;4.80;;
8938;SDS011;4504;48.810;9.172;2023-02-28T02:57:46;108.68;;;5.40;;
8938;SDS011;4504;48.810;9.172;2023-02-28T03:00:16;110.20;;;4.90;;
8938;SDS011;4504;48.810;9.172;2023-02-28T03:02:46;109.32;;;4.70;;
8938;SDS011;4504;48.810;9.172;2023-02-28T03:05:19;110.38;;;5.13;;
8938;SDS011;4504;48.810;9.172;2023-02-28T03:07:50;110.00;;;5.10;;
8938;SDS011;4504;48.810;9.172;2023-02-28T03:10:31;111.28;;;5.43;;
8938;SDS011;4504;48.810;9.172;2023-02-28T03:13:12;108.95;;;5.03;;
8938;SDS011;4504;48.810;9.172;2023-02-28T03:15:58;110.93;;;5.05;;
8938;SDS011;4504;48.810;9.172;2023-02-28T03:18:40;109.75;;;5.13;;
8938;SDS011;4504;48.810;9.172;2023-02-28T03:21:14;110.10;;;4.90;;
8938;SDS011;4504;48.810;9.172;2023-02-28T03:23:50;110.25;;;5.13;;
8938;SDS011;4504;48.810;9.172;2023-02-28T03:26:26;110.05;;;5.45;;
8938;SDS011;4504;48.810;9.172;2023-02-28T03:28:54;110.72;;;5.25;;
8938;SDS011;4504;48.810;9.172;2023-02-28T03:31:30;110.57;;;5.00;;
8938;SDS011;4504;48.810;9.172;2023-02-28T03:33:59;109.78;;;5.50;;
8938;SDS011;4504;48.810;9.172;2023-02-28T03:36:32;110.85;;;5.20;;
8938;SDS011;4504;48.810;9.172;2023-02-28T03:39:09;110.93;;;5.35;;
8938;SDS011;4504;48.810;9.172;2023-02-28T03:41:41;110.03;;;5.10;;
8938;SDS011;4504;48.810;9.172;2023-02-28T03:44:13;110.10;;;5.07;;
8938;SDS011;4504;48.810;9.172;2023-02-28T03:46:44;113.80;;;5.20;;
8938;SDS011;4504;48.810;9.172;2023-02-28T03:49:15;109.97;;;5.10;;
8938;SDS011;4504;48.810;9.172;2023-02-28T03:51:47;111.45;;;6.13;;
8938;SDS011;4504;48.810;9.172;2023-02-28T03:54:18;109.53;;;4.97;;
8938;SDS011;4504;48.810;9.172;2023-02-28T03:56:49;110.45;;;4.78;;
8938;SDS011;4504;48.810;9.172;2023-02-28T03:59:22;108.25;;;5.10;;
8938;SDS011;4504;48.810;9.172;2023-02-28T04:01:54;111.28;;;5.40;;
8938;SDS011;4504;48.810;9.172;2023-02-28T04:04:23;112.43;;;5.38;;
8938;SDS011;4504;48.810;9.172;2023-02-28T04:06:52;108.53;;;4.88;;
8938;SDS011;4504;48.810;9.172;2023-02-28T04:09:26;109.15;;;4.70;;
8938;SDS011;4504;48.810;9.172;2023-02-28T04:11:53;110.75;;;6.18;;
8938;SDS011;4504;48.810;9.172;2023-02-28T04:14:21;111.85;;;5.40;;
8938;SDS011;4504;48.810;9.172;2023-02-28T04:16:48;110.88;;;5.18;;
8938;SDS011;4504;48.810;9.172;2023-02-28T04:19:17;112.85;;;5.22;;
8938;SDS011;4504;48.810;9.172;2023-02-28T04:21:45;111.13;;;5.70;;
8938;SDS011;4504;48.810;9.172;2023-02-28T04:24:16;109.40;;;5.60;;
8938;SDS011;4504;48.810;9.172;2023-02-28T04:26:45;109.55;;;5.30;;
8938;SDS011;4504;48.810;9.172;2023-02-28T04:29:13;109.28;;;5.10;;
8938;SDS011;4504;48.810;9.172;2023-02-28T04:31:44;109.93;;;5.10;;
8938;SDS011;4504;48.810;9.172;2023-02-28T04:34:11;109.65;;;5.10;;
8938;SDS011;4504;48.810;9.172;2023-02-28T04:36:38;110.47;;;5.30;;
8938;SDS011;4504;48.810;9.172;2023-02-28T04:39:05;110.38;;;5.55;;
8938;SDS011;4504;48.810;9.172;2023-02-28T04:41:34;109.78;;;5.10;;
8938;SDS011;4504;48.810;9.172;2023-02-28T04:44:01;110.43;;;5.22;;
8938;SDS011;4504;48.810;9.172;2023-02-28T04:46:28;110.53;;;4.97;;
8938;SDS011;4504;48.810;9.172;2023-02-28T04:48:55;109.07;;;4.90;;
8938;SDS011;4504;48.810;9.172;2023-02-28T04:51:23;110.13;;;5.20;;
8938;SDS011;4504;48.810;9.172;2023-02-28T04:53:50;112.65;;;5.43;;
8938;SDS011;4504;48.810;9.172;2023-02-28T04:56:17;113.20;;;5.07;;
8938;SDS011;4504;48.810;9.172;2023-02-28T04:58:46;109.40;;;5.10;;
8938;SDS011;4504;48.810;9.172;2023-02-28T05:01:18;110.38;;;5.60;;
8938;SDS011;4504;48.810;9.172;2023-02-28T05:03:46;109.63;;;4.82;;
8938;SDS011;4504;48.810;9.172;2023-02-28T05:06:14;110.07;;;5.35;;
8938;SDS011;4504;48.810;9.172;2023-02-28T05:08:41;111.40;;;5.30;;
8938;SDS011;4504;48.810;9.172;2023-02-28T05:11:12;110.40;;;5.50;;
8938;SDS011;4504;48.810;9.172;2023-02-28T05:13:41;110.80;;;5.47;;
8938;SDS011;4504;48.810;9.172;2023-02-28T05:16:09;111.35;;;5.15;;
8938;SDS011;4504;48.810;9.172;2023-02-28T05:18:36;109.67;;;5.60;;
8938;SDS011;4504;48.810;9.172;2023-02-28T05:21:03;109.93;;;5.20;;
8938;SDS011;4504;48.810;9.172;2023-02-28T05:23:30;111.47;;;5.45;;
8938;SDS011;4504;48.810;9.172;2023-02-28T05:25:58;116.32;;;7.80;;
8938;SDS011;4504;48.810;9.172;2023-02-28T05:28:25;109.38;;;5.10;;
8938;SDS011;4504;48.810;9.172;2023-02-28T05:30:52;109.82;;;5.30;;
8938;SDS011;4504;48.810;9.172;2023-02-28T05:33:20;110.75;;;5.30;;
8938;SDS011;4504;48.810;9.172;2023-02-28T05:35:47;110.68;;;5.50;;
8938;SDS011;4504;48.810;9.172;2023-02-28T05:38:14;110.57;;;5.07;;
8938;SDS011;4504;48.810;9.172;2023-02-28T05:40:42;112.30;;;5.50;;
8938;SDS011;4504;48.810;9.172;2023-02-28T05:43:09;111.20;;;5.82;;
8938;SDS011;4504;48.810;9.172;2023-02-28T05:45:37;111.85;;;5.75;;
8938;SDS011;4504;48.810;9.172;2023-02-28T05:48:04;112.18;;;6.18;;
8938;SDS011;4504;48.810;9.172;2023-02-28T05:50:33;110.82;;;5.75;;
8938;SDS011;4504;48.810;9.172;2023-02-28T05:53:00;109.72;;;5.13;;
8938;SDS011;4504;48.810;9.172;2023-02-28T05:55:27;110.82;;;5.50;;
8938;SDS011;4504;48.810;9.172;2023-02-28T05:57:54;111.55;;;5.78;;
8938;SDS011;4504;48.810;9.172;2023-02-28T06:00:21;110.07;;;5.75;;
8938;SDS011;4504;48.810;9.172;2023-02-28T06:02:49;114.28;;;6.32;;
8938;SDS011;4504;48.810;9.172;2023-02-28T06:05:18;116.55;;;5.95;;
8938;SDS011;4504;48.810;9.172;2023-02-28T06:07:47;113.55;;;6.10;;
8938;SDS011;4504;48.810;9.172;2023-02-28T06:10:14;110.53;;;5.30;;
8938;SDS011;4504;48.810;9.172;2023-02-28T06:12:40;111.30;;;5.32;;
8938;SDS011;4504;48.810;9.172;2023-02-28T06:15:09;111.70;;;5.60;;
8938;SDS011;4504;48.810;9.172;2023-02-28T06:17:39;110.13;;;5.60;;
8938;SDS011;4504;48.810;9.172;2023-02-28T06:20:07;112.45;;;6.38;;
8938;SDS011;4504;48.810;9.172;2023-02-28T06:22:34;112.53;;;6.18;;
8938;SDS011;4504;48.810;9.172;2023-02-28T06:25:03;110.53;;;5.18;;
8938;SDS011;4504;48.810;9.172;2023-02-28T06:27:31;110.97;;;5.20;;
8938;SDS011;4504;48.810;9.172;2023-02-28T06:29:59;111.28;;;5.45;;
8938;SDS011;4504;48.810;9.172;2023-02-28T06:32:26;112.40;;;5.53;;
8938;SDS011;4504;48.810;9.172;2023-02-28T06:34:53;111.13;;;5.40;;
8938;SDS011;4504;48.810;9.172;2023-02-28T06:37:22;111.13;;;5.70;;
8938;SDS011;4504;48.810;9.172;2023-02-28T06:39:51;111.85;;;5.97;;
8938;SDS011;4504;48.810;9.172;2023-02-28T06:42:20;111.57;;;5.50;;
8938;SDS011;4504;48.810;9.172;2023-02-28T06:44:50;110.47;;;5.47;;
8938;SDS011;4504;48.810;9.172;2023-02-28T06:47:17;111.82;;;6.20;;
8938;SDS011;4504;48.810;9.172;2023-02-28T06:49:44;112.67;;;5.77;;
8938;SDS011;4504;48.810;9.172;2023-02-28T06:52:11;109.68;;;5.72;;
8938;SDS011;4504;48.810;9.172;2023-02-28T06:54:38;109.57;;;5.20;;
8938;SDS011;4504;48.810;9.172;2023-02-28T06:57:05;110.80;;;4.82;;
8938;SDS011;4504;48.810;9.172;2023-02-28T06:59:33;112.00;;;5.50;;
8938;SDS011;4504;48.810;9.172;2023-02-28T07:02:01;111.78;;;5.70;;
8938;SDS011;4504;48.810;9.172;2023-02-28T07:04:28;111.47;;;5.90;;
8938;SDS011;4504;48.810;9.172;2023-02-28T07:06:55;110.95;;;5.72;;
8938;SDS011;4504;48.810;9.172;2023-02-28T07:09:22;110.47;;;5.40;;
8938;SDS011;4504;48.810;9.172;2023-02-28T07:11:55;114.88;;;6.93;;
8938;SDS011;4504;48.810;9.172;2023-02-28T07:14:22;110.63;;;5.82;;
8938;SDS011;4504;48.810;9.172;2023-02-28T07:16:50;114.72;;;7.38;;
8938;SDS011;4504;48.810;9.172;2023-02-28T07:19:17;113.82;;;6.10;;
8938;SDS011;4504;48.810;9.172;2023-02-28T07:21:44;111.25;;;5.93;;
8938;SDS011;4504;48.810;9.172;2023-02-28T07:24:11;114.50;;;6.65;;
8938;SDS011;4504;48.810;9.172;2023-02-28T07:26:40;109.30;;;5.20;;
8938;SDS011;4504;48.810;9.172;2023-02-28T07:29:07;111.07;;;5.75;;
8938;SDS011;4504;48.810;9.172;2023-02-28T07:31:35;113.00;;;5.75;;
8938;SDS011;4504;48.810;9.172;2023-02-28T07:34:03;109.82;;;5.25;;
8938;SDS011;4504;48.810;9.172;2023-02-28T07:36:30;110.13;;;5.45;;
8938;SDS011;4504;48.810;9.172;2023-02-28T07:38:57;111.97;;;5.65;;
8938;SDS011;4504;48.810;9.172;2023-02-28T07:41:25;112.25;;;5.63;;
8938;SDS011;4504;48.810;9.172;2023-02-28T07:43:53;112.07;;;5.57;;
8938;SDS011;4504;48.810;9.172;2023-02-28T07:46:20;112.28;;;6.20;;
8938;SDS011;4504;48.810;9.172;2023-02-28T07:48:47;111.10;;;5.55;;
8938;SDS011;4504;48.810;9.172;2023-02-28T07:51:16;110.53;;;5.13;;
8938;SDS011;4504;48.810;9.172;2023-02-28T07:53:43;112.13;;;6.13;;
8938;SDS011;4504;48.810;9.172;2023-02-28T07:56:10;110.60;;;5.57;;
8938;SDS011;4504;48.810;9.172;2023-02-28T07:58:37;111.28;;;5.95;;
8938;SDS011;4504;48.810;9.172;2023-02-28T08:01:04;113.22;;;5.78;;
8938;SDS011;4504;48.810;9.172;2023-02-28T08:03:33;111.88;;;5.30;;
8938;SDS011;4504;48.810;9.172;2023-02-28T08:06:00;110.55;;;5.70;;
8938;SDS011;4504;48.810;9.172;2023-02-28T08:08:30;111.63;;;5.80;;
8938;SDS011;4504;48.810;9.172;2023-02-28T08:10:58;110.00;;;5.00;;
8938;SDS011;4504;48.810;9.172;2023-02-28T08:13:26;111.90;;;5.80;;
8938;SDS011;4504;48.810;9.172;2023-02-28T08:15:53;110.03;;;5.30;;
8938;SDS011;4504;48.810;9.172;2023-02-28T08:18:20;110.38;;;5.85;;
8938;SDS011;4504;48.810;9.172;2023-02-28T08:20:48;112.20;;;5.47;;
8938;SDS011;4504;48.810;9.172;2023-02-28T08:23:15;111.50;;;5.95;;
8938;SDS011;4504;48.810;9.172;2023-02-28T08:25:43;112.20;;;6.35;;
8938;SDS011;4504;48.810;9.172;2023-02-28T08:28:10;112.07;;;5.88;;
8938;SDS011;4504;48.810;9.172;2023-02-28T08:30:37;114.25;;;6.10;;
8938;SDS011;4504;48.810;9.172;2023-02-28T08:33:06;112.45;;;5.60;;
8938;SDS011;4504;48.810;9.172;2023-02-28T08:35:35;110.63;;;5.30;;
8938;SDS011;4504;48.810;9.172;2023-02-28T08:38:02;113.13;;;6.03;;
8938;SDS011;4504;48.810;9.172;2023-02-28T08:40:29;110.60;;;5.70;;
8938;SDS011;4504;48.810;9.172;2023-02-28T08:42:57;113.70;;;5.45;;
8938;SDS011;4504;48.810;9.172;2023-02-28T08:45:25;110.50;;;5.43;;
8938;SDS011;4504;48.810;9.172;2023-02-28T08:47:53;110.63;;;5.47;;
8938;SDS011;4504;48.810;9.172;2023-02-28T08:50:20;110.43;;;5.43;;
8938;SDS011;4504;48.810;9.172;2023-02-28T08:52:47;111.68;;;5.60;;
8938;SDS011;4504;48.810;9.172;2023-02-28T08:55:14;113.80;;;5.93;;
8938;SDS011;4504;48.810;9.172;2023-02-28T08:57:41;112.20;;;5.95;;
8938;SDS011;4504;48.810;9.172;2023-02-28T09:00:10;111.30;;;5.53;;
8938;SDS011;4504;48.810;9.172;2023-02-28T09:02:39;111.80;;;6.20;;
8938;SDS011;4504;48.810;9.172;2023-02-28T09:05:08;113.07;;;6.15;;
8938;SDS011;4504;48.810;9.172;2023-02-28T09:07:35;112.63;;;6.10;;
8938;SDS011;4504;48.810;9.172;2023-02-28T09:10:02;112.78;;;5.22;;
8938;SDS011;4504;48.810;9.172;2023-02-28T09:12:31;111.57;;;5.20;;
8938;SDS011;4504;48.810;9.172;2023-02-28T09:15:00;112.07;;;5.53;;
8938;SDS011;4504;48.810;9.172;2023-02-28T09:17:28;110.03;;;5.78;;
8938;SDS011;4504;48.810;9.172;2023-02-28T09:19:55;115.32;;;6.55;;
8938;SDS011;4504;48.810;9.172;2023-02-28T09:22:23;114.10;;;5.78;;
8938;SDS011;4504;48.810;9.172;2023-02-28T09:24:50;113.28;;;5.75;;
8938;SDS011;4504;48.810;9.172;2023-02-28T09:27:17;111.22;;;5.32;;
8938;SDS011;4504;48.810;9.172;2023-02-28T09:29:44;112.38;;;5.80;;
8938;SDS011;4504;48.810;9.172;2023-02-28T09:32:11;115.80;;;5.55;;
8938;SDS011;4504;48.810;9.172;2023-02-28T09:34:39;114.68;;;6.15;;
8938;SDS011;4504;48.810;9.172;2023-02-28T09:37:06;112.83;;;5.87;;
8938;SDS011;4504;48.810;9.172;2023-02-28T09:39:33;112.72;;;6.25;;
8938;SDS011;4504;48.810;9.172;2023-02-28T09:42:00;113.50;;;6.30;;
8938;SDS011;4504;48.810;9.172;2023-02-28T09:44:30;112.00;;;5.60;;
8938;SDS011;4504;48.810;9.172;2023-02-28T09:47:03;111.47;;;5.65;;
8938;SDS011;4504;48.810;9.172;2023-02-28T09:49:37;112.10;;;5.50;;
8938;SDS011;4504;48.810;9.172;2023-02-28T09:52:09;111.43;;;5.20;;
8938;SDS011;4504;48.810;9.172;2023-02-28T09:54:40;112.32;;;5.15;;
8938;SDS011;4504;48.810;9.172;2023-02-28T09:57:08;116.38;;;5.97;;
8938;SDS011;4504;48.810;9.172;2023-02-28T09:59:59;115.28;;;5.75;;
8938;SDS011;4504;48.810;9.172;2023-02-28T10:02:46;114.38;;;6.15;;
8938;SDS011;4504;48.810;9.172;2023-02-28T10:05:25;112.63;;;6.35;;
8938;SDS011;4504;48.810;9.172;2023-02-28T10:08:02;114.40;;;5.30;;
8938;SDS011;4504;48.810;9.172;2023-02-28T10:10:35;111.20;;;5.35;;
8938;SDS011;4504;48.810;9.172;2023-02-28T10:13:06;112.35;;;5.55;;
8938;SDS011;4504;48.810;9.172;2023-02-28T10:15:46;113.40;;;6.07;;
8938;SDS011;4504;48.810;9.172;2023-02-28T10:18:19;111.43;;;5.40;;
8938;SDS011;4504;48.810;9.172;2023-02-28T10:20:52;111.78;;;6.25;;
8938;SDS011;4504;48.810;9.172;2023-02-28T10:23:23;111.30;;;5.03;;
8938;SDS011;4504;48.810;9.172;2023-02-28T10:25:54;112.28;;;5.85;;
8938;SDS011;4504;48.810;9.172;2023-02-28T10:28:24;113.28;;;6.18;;
8938;SDS011;4504;48.810;9.172;2023-02-28T10:30:53;115.65;;;5.97;;
8938;SDS011;4504;48.810;9.172;2023-02-28T10:33:24;114.03;;;5.80;;
8938;SDS011;4504;48.810;9.172;2023-02-28T10:35:55;112.63;;;5.20;;
8938;SDS011;4504;48.810;9.172;2023-02-28T10:38:24;114.20;;;5.70;;
8938;SDS011;4504;48.810;9.172;2023-02-28T10:40:57;113.00;;;6.03;;
8938;SDS011;4504;48.810;9.172;2023-02-28T10:43:30;116.72;;;5.50;;
8938;SDS011;4504;48.810;9.172;2023-02-28T10:46:01;115.07;;;5.45;;
8938;SDS011;4504;48.810;9.172;2023-02-28T10:48:34;111.88;;;5.55;;
8938;SDS011;4504;48.810;9.172;2023-02-28T10:51:06;113.78;;;5.75;;
8938;SDS011;4504;48.810;9.172;2023-02-28T10:53:39;111.57;;;5.13;;
8938;SDS011;4504;48.810;9.172;2023-02-28T10:56:16;114.35;;;5.70;;
8938;SDS011;4504;48.810;9.172;2023-02-28T10:58:47;113.28;;;5.80;;
8938;SDS011;4504;48.810;9.172;2023-02-28T11:01:17;112.47;;;5.57;;
8938;SDS011;4504;48.810;9.172;2023-02-28T11:03:45;114.50;;;6.15;;
8938;SDS011;4504;48.810;9.172;2023-02-28T11:06:15;112.57;;;5.57;;
8938;SDS011;4504;48.810;9.172;2023-02-28T11:08:48;114.38;;;5.68;;
8938;SDS011;4504;48.810;9.172;2023-02-28T11:11:18;115.25;;;6.25;;
8938;SDS011;4504;48.810;9.172;2023-02-28T11:13:46;115.05;;;6.32;;
8938;SDS011;4504;48.810;9.172;2023-02-28T11:16:16;114.05;;;5.60;;
8938;SDS011;4504;48.810;9.172;2023-02-28T11:18:44;111.22;;;5.50;;
8938;SDS011;4504;48.810;9.172;2023-02-28T11:21:17;115.32;;;5.63;;
8938;SDS011;4504;48.810;9.172;2023-02-28T11:23:47;112.32;;;5.30;;
8938;SDS011;4504;48.810;9.172;2023-02-28T11:29:09;115.57;;;6.13;;
8938;SDS011;4504;48.810;9.172;2023-02-28T11:31:38;112.95;;;5.40;;
8938;SDS011;4504;48.810;9.172;2023-02-28T11:36:54;112.63;;;5.25;;
8938;SDS011;4504;48.810;9.172;2023-02-28T11:39:23;113.28;;;5.47;;
8938;SDS011;4504;48.810;9.172;2023-02-28T11:42:04;113.38;;;5.85;;
8938;SDS011;4504;48.810;9.172;2023-02-28T11:44:47;114.07;;;5.55;;
8938;SDS011;4504;48.810;9.172;2023-02-28T11:47:26;122.22;;;6.43;;
8938;SDS011;4504;48.810;9.172;2023-02-28T11:50:12;113.07;;;5.70;;
8938;SDS011;4504;48.810;9.172;2023-02-28T11:52:50;113.25;;;5.80;;
8938;SDS011;4504;48.810;9.172;2023-02-28T11:55:20;113.25;;;5.80;;
8938;SDS011;4504;48.810;9.172;2023-02-28T12:00:50;110.40;;;5.35;;
8938;SDS011;4504;48.810;9.172;2023-02-28T12:03:42;114.10;;;5.20;;
8938;SDS011;4504;48.810;9.172;2023-02-28T12:06:15;117.38;;;6.13;;
8938;SDS011;4504;48.810;9.172;2023-02-28T12:08:49;114.53;;;5.65;;
8938;SDS011;4504;48.810;9.172;2023-02-28T12:11:38;116.32;;;6.07;;
8938;SDS011;4504;48.810;9.172;2023-02-28T12:14:18;113.57;;;5.60;;
8938;SDS011;4504;48.810;9.172;2023-02-28T12:17:05;116.32;;;5.80;;
8938;SDS011;4504;48.810;9.172;2023-02-28T12:19:45;114.57;;;5.63;;
8938;SDS011;4504;48.810;9.172;2023-02-28T12:22:22;116.00;;;5.80;;
8938;SDS011;4504;48.810;9.172;2023-02-28T12:25:17;115.10;;;6.40;;
8938;SDS011;4504;48.810;9.172;2023-02-28T12:27:48;115.57;;;5.90;;
8938;SDS011;4504;48.810;9.172;2023-02-28T12:30:19;112.40;;;5.70;;
8938;SDS011;4504;48.810;9.172;2023-02-28T12:32:51;115.10;;;6.43;;
8938;SDS011;4504;48.810;9.172;2023-02-28T12:35:22;114.03;;;5.85;;
8938;SDS011;4504;48.810;9.172;2023-02-28T12:37:54;114.30;;;5.47;;
8938;SDS011;4504;48.810;9.172;2023-02-28T12:40:27;116.53;;;6.53;;
8938;SDS011;4504;48.810;9.172;2023-02-28T12:43:05;116.57;;;6.60;;
8938;SDS011;4504;48.810;9.172;2023-02-28T12:45:39;113.60;;;5.78;;
8938;SDS011;4504;48.810;9.172;2023-02-28T12:48:13;117.15;;;6.60;;
8938;SDS011;4504;48.810;9.172;2023-02-28T12:50:44;115.75;;;6.50;;
8938;SDS011;4504;48.810;9.172;2023-02-28T12:53:15;114.63;;;5.53;;
8938;SDS011;4504;48.810;9.172;2023-02-28T12:55:52;113.45;;;5.18;;
8938;SDS011;4504;48.810;9.172;2023-02-28T12:58:26;114.93;;;5.70;;
8938;SDS011;4504;48.810;9.172;2023-02-28T13:01:14;115.00;;;4.80;;
8938;SDS011;4504;48.810;9.172;2023-02-28T13:04:24;114.47;;;5.57;;
8938;SDS011;4504;48.810;9.172;2023-02-28T13:10:13;115.93;;;5.95;;
8938;SDS011;4504;48.810;9.172;2023-02-28T13:12:48;116.53;;;5.97;;
8938;SDS011;4504;48.810;9.172;2023-02-28T13:15:18;113.22;;;5.00;;
8938;SDS011;4504;48.810;9.172;2023-02-28T13:17:50;114.32;;;5.40;;
8938;SDS011;4504;48.810;9.172;2023-02-28T13:20:18;113.53;;;5.13;;
8938;SDS011;4504;48.810;9.172;2023-02-28T13:22:48;113.55;;;5.88;;
8938;SDS011;4504;48.810;9.172;2023-02-28T13:34:35;115.82;;;5.55;;
8938;SDS011;4504;48.810;9.172;2023-02-28T13:42:54;116.22;;;5.35;;
8938;SDS011;4504;48.810;9.172;2023-02-28T13:45:23;116.25;;;6.22;;
8938;SDS011;4504;48.810;9.172;2023-02-28T13:47:52;118.00;;;6.13;;
8938;SDS011;4504;48.810;9.172;2023-02-28T13:50:30;116.15;;;6.38;;
8938;SDS011;4504;48.810;9.172;2023-02-28T13:56:19;122.43;;;5.80;;
8938;SDS011;4504;48.810;9.172;2023-02-28T13:59:04;118.03;;;6.57;;
8938;SDS011;4504;48.810;9.172;2023-02-28T14:01:45;114.15;;;5.30;;
8938;SDS011;4504;48.810;9.172;2023-02-28T14:07:19;115.75;;;5.60;;
8938;SDS011;4504;48.810;9.172;2023-02-28T14:09:51;117.30;;;6.18;;
8938;SDS011;4504;48.810;9.172;2023-02-28T14:18:17;114.80;;;5.10;;
8938;SDS011;4504;48.810;9.172;2023-02-28T14:20:48;115.43;;;5.50;;
8938;SDS011;4504;48.810;9.172;2023-02-28T14:23:24;118.18;;;5.60;;
8938;SDS011;4504;48.810;9.172;2023-02-28T14:26:01;116.93;;;4.95;;
8938;SDS011;4504;48.810;9.172;2023-02-28T14:28:39;118.55;;;5.88;;
8938;SDS011;4504;48.810;9.172;2023-02-28T14:31:15;115.97;;;5.38;;
8938;SDS011;4504;48.810;9.172;2023-02-28T14:34:03;116.32;;;5.50;;
8938;SDS011;4504;48.810;9.172;2023-02-28T14:36:43;115.85;;;5.75;;
8938;SDS011;4504;48.810;9.172;2023-02-28T14:39:13;116.05;;;5.32;;
8938;SDS011;4504;48.810;9.172;2023-02-28T14:41:42;116.88;;;5.95;;
8938;SDS011;4504;48.810;9.172;2023-02-28T14:44:14;115.85;;;5.70;;
8938;SDS011;4504;48.810;9.172;2023-02-28T14:46:43;116.53;;;5.70;;
8938;SDS011;4504;48.810;9.172;2023-02-28T14:49:16;115.68;;;6.00;;
8938;SDS011;4504;48.810;9.172;2023-02-28T14:51:47;114.70;;;5.03;;
8938;SDS011;4504;48.810;9.172;2023-02-28T14:54:18;114.68;;;5.32;;
8938;SDS011;4504;48.810;9.172;2023-02-28T14:56:49;118.20;;;5.55;;
8938;SDS011;4504;48.810;9.172;2023-02-28T14:59:23;115.97;;;5.72;;
8938;SDS011;4504;48.810;9.172;2023-02-28T15:01:53;119.05;;;6.32;;
8938;SDS011;4504;48.810;9.172;2023-02-28T15:04:44;116.03;;;5.85;;
8938;SDS011;4504;48.810;9.172;2023-02-28T15:07:19;118.93;;;5.55;;
8938;SDS011;4504;48.810;9.172;2023-02-28T15:10:08;121.95;;;7.15;;
8938;SDS011;4504;48.810;9.172;2023-02-28T15:12:38;118.97;;;6.05;;
8938;SDS011;4504;48.810;9.172;2023-02-28T15:15:13;119.10;;;6.22;;
8938;SDS011;4504;48.810;9.172;2023-02-28T15:17:42;119.53;;;6.15;;
8938;SDS011;4504;48.810;9.172;2023-02-28T15:20:12;114.55;;;5.50;;
8938;SDS011;4504;48.810;9.172;2023-02-28T15:22:41;114.47;;;5.00;;
8938;SDS011;4504;48.810;9.172;2023-02-28T15:25:11;117.88;;;5.90;;
8938;SDS011;4504;48.810;9.172;2023-02-28T15:27:42;117.10;;;6.07;;
8938;SDS011;4504;48.810;9.172;2023-02-28T15:30:15;117.68;;;6.28;;
8938;SDS011;4504;48.810;9.172;2023-02-28T15:32:43;114.13;;;5.40;;
8938;SDS011;4504;48.810;9.172;2023-02-28T15:35:18;117.00;;;6.18;;
8938;SDS011;4504;48.810;9.172;2023-02-28T15:37:47;116.18;;;5.22;;
8938;SDS011;4504;48.810;9.172;2023-02-28T15:40:22;118.28;;;5.60;;
8938;SDS011;4504;48.810;9.172;2023-02-28T15:42:59;109.00;;;5.63;;
8938;SDS011;4504;48.810;9.172;2023-02-28T15:45:34;116.50;;;5.75;;
8938;SDS011;4504;48.810;9.172;2023-02-28T15:48:12;116.75;;;5.43;;
8938;SDS011;4504;48.810;9.172;2023-02-28T15:50:44;117.18;;;5.70;;
8938;SDS011;4504;48.810;9.172;2023-02-28T15:53:15;115.18;;;5.85;;
8938;SDS011;4504;48.810;9.172;2023-02-28T15:55:47;116.07;;;5.53;;
8938;SDS011;4504;48.810;9.172;2023-02-28T15:58:20;115.45;;;5.65;;